EBOS

Ostend-Bruges International Airport

Ostend, Belgium
METAR EBOS 152020Z 08007KT CAVOK 20/14 Q1015 NOSIG
Observed Flight Rules
Jul-15 @ 20:20 UTC (35 minutes ago) Visual Flight Rules
Wind Visibility Clouds
80° at 7 knots 10,000+ meters
  • Clear skies
Temperatures Readings
Current 20°C / 68°F
Dewpoint 14°C / 57°F
Humidity 69%
Altimeter 29.97" Hg
Pressure 1015 hPa
Elevation 5
METAR EBOS 152020Z 08007KT CAVOK 20/14 Q1015 NOSIG
Observed Flight Rules
Jul-15 @ 20:20 UTC
(35 minutes ago)
VFR
Wind Visibility
80° at 7 knots 10,000+ meters
Clouds
  • Clear skies
Temperature Dewpoint
20°C / 68°F 14°C / 57°F
Humidity Altimeter Pressure
69% 29.97" Hg 1015 hPa